sensor_id;sensor_type;location;lat;lon;timestamp;pressure;altitude;pressure_sealevel;temperature;humidity
20023;BME280;10172;42.054;24.546;2022-12-29T00:02:03;99253.28;;;3.59;100.00
20023;BME280;10172;42.054;24.546;2022-12-29T00:04:29;99261.97;;;3.25;100.00
20023;BME280;10172;42.054;24.546;2022-12-29T00:06:55;99259.28;;;3.65;100.00
20023;BME280;10172;42.054;24.546;2022-12-29T00:09:21;99289.81;;;4.05;100.00
20023;BME280;10172;42.054;24.546;2022-12-29T00:11:47;99295.50;;;3.53;100.00
20023;BME280;10172;42.054;24.546;2022-12-29T00:14:13;99296.78;;;3.73;100.00
20023;BME280;10172;42.054;24.546;2022-12-29T00:16:57;99280.91;;;3.40;100.00
20023;BME280;10172;42.054;24.546;2022-12-29T00:19:23;99289.34;;;4.22;100.00
20023;BME280;10172;42.054;24.546;2022-12-29T00:22:14;99312.06;;;3.94;100.00
20023;BME280;10172;42.054;24.546;2022-12-29T00:24:58;99289.25;;;3.57;100.00
20023;BME280;10172;42.054;24.546;2022-12-29T00:27:42;99297.31;;;4.20;100.00
20023;BME280;10172;42.054;24.546;2022-12-29T00:30:27;99317.59;;;3.82;100.00
20023;BME280;10172;42.054;24.546;2022-12-29T00:33:22;99304.31;;;3.88;100.00
20023;BME280;10172;42.054;24.546;2022-12-29T00:38:39;99321.84;;;3.89;100.00
20023;BME280;10172;42.054;24.546;2022-12-29T00:41:25;99321.22;;;3.78;100.00
20023;BME280;10172;42.054;24.546;2022-12-29T00:44:10;99305.56;;;4.07;100.00
20023;BME280;10172;42.054;24.546;2022-12-29T00:46:39;99337.34;;;4.33;100.00
20023;BME280;10172;42.054;24.546;2022-12-29T00:49:10;99318.63;;;4.11;100.00
20023;BME280;10172;42.054;24.546;2022-12-29T00:51:56;99334.72;;;4.33;100.00
20023;BME280;10172;42.054;24.546;2022-12-29T00:54:22;99333.78;;;4.02;100.00
20023;BME280;10172;42.054;24.546;2022-12-29T00:56:49;99297.31;;;4.53;100.00
20023;BME280;10172;42.054;24.546;2022-12-29T00:59:15;99334.94;;;3.92;100.00
20023;BME280;10172;42.054;24.546;2022-12-29T01:01:40;99325.44;;;3.85;100.00
20023;BME280;10172;42.054;24.546;2022-12-29T01:04:06;99321.41;;;4.39;100.00
20023;BME280;10172;42.054;24.546;2022-12-29T01:06:33;99297.41;;;4.80;100.00
20023;BME280;10172;42.054;24.546;2022-12-29T01:08:59;99306.44;;;5.03;100.00
20023;BME280;10172;42.054;24.546;2022-12-29T01:11:43;99340.81;;;5.29;100.00
20023;BME280;10172;42.054;24.546;2022-12-29T01:14:08;99308.34;;;5.27;100.00
20023;BME280;10172;42.054;24.546;2022-12-29T01:16:34;99307.78;;;4.87;100.00
20023;BME280;10172;42.054;24.546;2022-12-29T01:19:02;99299.06;;;4.52;100.00
20023;BME280;10172;42.054;24.546;2022-12-29T01:21:27;99303.38;;;4.56;100.00
20023;BME280;10172;42.054;24.546;2022-12-29T01:23:53;99294.97;;;4.42;100.00
20023;BME280;10172;42.054;24.546;2022-12-29T01:26:18;99295.19;;;4.65;100.00
20023;BME280;10172;42.054;24.546;2022-12-29T01:28:44;99319.88;;;5.23;100.00
20023;BME280;10172;42.054;24.546;2022-12-29T01:31:11;99302.94;;;4.71;100.00
20023;BME280;10172;42.054;24.546;2022-12-29T01:33:37;99287.19;;;5.28;100.00
20023;BME280;10172;42.054;24.546;2022-12-29T01:36:04;99295.97;;;5.57;100.00
20023;BME280;10172;42.054;24.546;2022-12-29T01:38:31;99275.13;;;5.20;100.00
20023;BME280;10172;42.054;24.546;2022-12-29T01:40:57;99288.16;;;5.80;100.00
20023;BME280;10172;42.054;24.546;2022-12-29T01:46:20;99291.00;;;5.46;100.00
20023;BME280;10172;42.054;24.546;2022-12-29T01:49:12;99284.50;;;5.85;100.00
20023;BME280;10172;42.054;24.546;2022-12-29T01:51:42;99279.16;;;5.87;100.00
20023;BME280;10172;42.054;24.546;2022-12-29T01:57:05;99269.19;;;5.95;100.00
20023;BME280;10172;42.054;24.546;2022-12-29T01:59:37;99231.63;;;6.12;100.00
20023;BME280;10172;42.054;24.546;2022-12-29T02:02:05;99252.28;;;6.00;100.00
20023;BME280;10172;42.054;24.546;2022-12-29T02:04:32;99244.50;;;5.70;100.00
20023;BME280;10172;42.054;24.546;2022-12-29T02:07:02;99255.09;;;5.42;100.00
20023;BME280;10172;42.054;24.546;2022-12-29T02:09:30;99253.53;;;5.63;100.00
20023;BME280;10172;42.054;24.546;2022-12-29T02:11:56;99227.59;;;4.94;100.00
20023;BME280;10172;42.054;24.546;2022-12-29T02:14:23;99245.75;;;5.58;100.00
20023;BME280;10172;42.054;24.546;2022-12-29T02:24:56;99223.34;;;7.80;100.00
20023;BME280;10172;42.054;24.546;2022-12-29T02:27:36;99229.94;;;8.12;100.00
20023;BME280;10172;42.054;24.546;2022-12-29T02:32:50;99234.97;;;7.56;100.00
20023;BME280;10172;42.054;24.546;2022-12-29T02:38:49;99222.81;;;5.34;100.00
20023;BME280;10172;42.054;24.546;2022-12-29T02:41:37;99206.03;;;4.79;100.00
20023;BME280;10172;42.054;24.546;2022-12-29T02:46:40;99200.00;;;5.31;100.00
20023;BME280;10172;42.054;24.546;2022-12-29T02:49:19;99216.22;;;5.47;100.00
20023;BME280;10172;42.054;24.546;2022-12-29T02:52:02;99210.22;;;5.68;100.00
20023;BME280;10172;42.054;24.546;2022-12-29T02:54:31;99213.03;;;5.90;100.00
20023;BME280;10172;42.054;24.546;2022-12-29T02:57:14;99223.75;;;6.59;100.00
20023;BME280;10172;42.054;24.546;2022-12-29T02:59:42;99198.09;;;5.09;100.00
20023;BME280;10172;42.054;24.546;2022-12-29T03:21:42;99191.84;;;3.25;100.00
20023;BME280;10172;42.054;24.546;2022-12-29T03:24:30;99206.72;;;3.61;100.00
20023;BME280;10172;42.054;24.546;2022-12-29T03:26:58;99207.25;;;3.76;100.00
20023;BME280;10172;42.054;24.546;2022-12-29T03:29:28;99169.66;;;3.35;100.00
20023;BME280;10172;42.054;24.546;2022-12-29T03:31:55;99195.97;;;3.00;100.00
20023;BME280;10172;42.054;24.546;2022-12-29T03:34:22;99207.31;;;3.02;100.00
20023;BME280;10172;42.054;24.546;2022-12-29T03:36:57;99158.25;;;3.01;100.00
20023;BME280;10172;42.054;24.546;2022-12-29T03:39:25;99176.31;;;3.16;100.00
20023;BME280;10172;42.054;24.546;2022-12-29T03:41:58;99189.41;;;3.53;100.00
20023;BME280;10172;42.054;24.546;2022-12-29T03:44:43;99185.97;;;3.49;100.00
20023;BME280;10172;42.054;24.546;2022-12-29T03:47:10;99189.63;;;4.10;100.00
20023;BME280;10172;42.054;24.546;2022-12-29T03:49:36;99183.91;;;3.62;100.00
20023;BME280;10172;42.054;24.546;2022-12-29T03:52:02;99187.09;;;3.73;100.00
20023;BME280;10172;42.054;24.546;2022-12-29T03:54:29;99176.97;;;3.92;100.00
20023;BME280;10172;42.054;24.546;2022-12-29T03:56:54;99159.16;;;4.01;100.00
20023;BME280;10172;42.054;24.546;2022-12-29T03:59:20;99173.84;;;3.78;100.00
20023;BME280;10172;42.054;24.546;2022-12-29T04:01:45;99204.09;;;3.26;100.00
20023;BME280;10172;42.054;24.546;2022-12-29T04:04:11;99214.28;;;3.03;100.00
20023;BME280;10172;42.054;24.546;2022-12-29T04:06:37;99163.16;;;3.50;100.00
20023;BME280;10172;42.054;24.546;2022-12-29T04:09:02;99203.69;;;3.43;100.00
20023;BME280;10172;42.054;24.546;2022-12-29T04:11:28;99226.34;;;3.48;100.00
20023;BME280;10172;42.054;24.546;2022-12-29T04:13:53;99211.69;;;3.38;100.00
20023;BME280;10172;42.054;24.546;2022-12-29T04:16:19;99215.28;;;4.34;100.00
20023;BME280;10172;42.054;24.546;2022-12-29T04:18:44;99208.94;;;3.78;100.00
20023;BME280;10172;42.054;24.546;2022-12-29T04:21:10;99213.03;;;3.54;100.00
20023;BME280;10172;42.054;24.546;2022-12-29T04:23:37;99184.34;;;3.45;100.00
20023;BME280;10172;42.054;24.546;2022-12-29T04:26:04;99216.38;;;3.26;100.00
20023;BME280;10172;42.054;24.546;2022-12-29T04:28:32;99236.59;;;3.22;100.00
20023;BME280;10172;42.054;24.546;2022-12-29T04:30:57;99246.59;;;3.08;100.00
20023;BME280;10172;42.054;24.546;2022-12-29T04:33:23;99222.56;;;2.86;100.00
20023;BME280;10172;42.054;24.546;2022-12-29T04:35:49;99253.13;;;3.27;100.00
20023;BME280;10172;42.054;24.546;2022-12-29T04:38:15;99234.72;;;2.90;100.00
20023;BME280;10172;42.054;24.546;2022-12-29T04:40:42;99245.22;;;2.92;100.00
20023;BME280;10172;42.054;24.546;2022-12-29T04:43:08;99229.63;;;2.83;100.00
20023;BME280;10172;42.054;24.546;2022-12-29T04:45:33;99236.19;;;2.64;100.00
20023;BME280;10172;42.054;24.546;2022-12-29T04:47:59;99249.25;;;2.67;100.00
20023;BME280;10172;42.054;24.546;2022-12-29T04:50:24;99244.44;;;2.87;100.00
20023;BME280;10172;42.054;24.546;2022-12-29T04:52:50;99248.38;;;3.08;100.00
20023;BME280;10172;42.054;24.546;2022-12-29T04:55:15;99244.03;;;3.05;100.00
20023;BME280;10172;42.054;24.546;2022-12-29T04:57:41;99261.97;;;3.25;100.00
20023;BME280;10172;42.054;24.546;2022-12-29T05:00:08;99263.38;;;3.01;100.00
20023;BME280;10172;42.054;24.546;2022-12-29T05:02:37;99270.06;;;2.76;100.00
20023;BME280;10172;42.054;24.546;2022-12-29T05:05:03;99257.03;;;3.11;100.00
20023;BME280;10172;42.054;24.546;2022-12-29T05:07:28;99257.19;;;3.05;100.00
20023;BME280;10172;42.054;24.546;2022-12-29T05:09:54;99256.13;;;3.12;100.00
20023;BME280;10172;42.054;24.546;2022-12-29T05:12:19;99246.88;;;2.96;100.00
20023;BME280;10172;42.054;24.546;2022-12-29T05:14:45;99207.56;;;2.90;100.00
20023;BME280;10172;42.054;24.546;2022-12-29T05:17:10;99190.13;;;3.24;100.00
20023;BME280;10172;42.054;24.546;2022-12-29T05:19:36;99242.97;;;3.50;100.00
20023;BME280;10172;42.054;24.546;2022-12-29T05:22:03;99185.78;;;2.85;100.00
20023;BME280;10172;42.054;24.546;2022-12-29T05:24:29;99253.47;;;3.14;100.00
20023;BME280;10172;42.054;24.546;2022-12-29T05:26:54;99238.47;;;3.19;100.00
20023;BME280;10172;42.054;24.546;2022-12-29T05:29:20;99171.16;;;2.73;100.00
20023;BME280;10172;42.054;24.546;2022-12-29T05:31:45;99229.53;;;2.87;100.00
20023;BME280;10172;42.054;24.546;2022-12-29T05:34:11;99250.16;;;3.42;100.00
20023;BME280;10172;42.054;24.546;2022-12-29T05:36:37;99193.09;;;3.09;100.00
20023;BME280;10172;42.054;24.546;2022-12-29T05:39:02;99233.81;;;3.30;100.00
20023;BME280;10172;42.054;24.546;2022-12-29T05:41:28;99140.25;;;2.46;100.00
20023;BME280;10172;42.054;24.546;2022-12-29T05:43:53;99227.59;;;2.56;100.00
20023;BME280;10172;42.054;24.546;2022-12-29T05:46:19;99219.06;;;2.86;100.00
20023;BME280;10172;42.054;24.546;2022-12-29T05:48:44;99221.47;;;2.95;100.00
20023;BME280;10172;42.054;24.546;2022-12-29T05:51:10;99225.84;;;2.96;100.00
20023;BME280;10172;42.054;24.546;2022-12-29T05:53:35;99221.19;;;3.07;100.00
20023;BME280;10172;42.054;24.546;2022-12-29T05:56:01;99217.69;;;2.68;100.00
20023;BME280;10172;42.054;24.546;2022-12-29T05:58:26;99149.31;;;2.31;100.00
20023;BME280;10172;42.054;24.546;2022-12-29T06:00:52;99225.78;;;2.99;100.00
20023;BME280;10172;42.054;24.546;2022-12-29T06:03:17;99221.41;;;2.98;100.00
20023;BME280;10172;42.054;24.546;2022-12-29T06:05:45;99224.66;;;3.09;100.00
20023;BME280;10172;42.054;24.546;2022-12-29T06:08:11;99220.78;;;2.87;100.00
20023;BME280;10172;42.054;24.546;2022-12-29T06:10:36;99151.38;;;2.17;100.00
20023;BME280;10172;42.054;24.546;2022-12-29T06:13:02;99214.75;;;2.82;100.00
20023;BME280;10172;42.054;24.546;2022-12-29T06:15:28;99226.16;;;3.19;100.00
20023;BME280;10172;42.054;24.546;2022-12-29T06:17:54;99241.34;;;3.43;100.00
20023;BME280;10172;42.054;24.546;2022-12-29T06:20:20;99190.13;;;3.59;100.00
20023;BME280;10172;42.054;24.546;2022-12-29T06:22:45;99242.16;;;3.47;100.00
20023;BME280;10172;42.054;24.546;2022-12-29T06:25:11;99244.28;;;3.31;100.00
20023;BME280;10172;42.054;24.546;2022-12-29T06:27:37;99259.53;;;3.54;100.00
20023;BME280;10172;42.054;24.546;2022-12-29T06:30:03;99252.91;;;3.38;100.00
20023;BME280;10172;42.054;24.546;2022-12-29T06:32:28;99221.16;;;3.81;100.00
20023;BME280;10172;42.054;24.546;2022-12-29T06:34:54;99276.69;;;3.70;100.00
20023;BME280;10172;42.054;24.546;2022-12-29T06:37:19;99277.69;;;3.65;100.00
20023;BME280;10172;42.054;24.546;2022-12-29T06:39:45;99230.41;;;3.25;100.00
20023;BME280;10172;42.054;24.546;2022-12-29T06:42:10;99277.59;;;3.32;100.00
20023;BME280;10172;42.054;24.546;2022-12-29T06:44:36;99275.22;;;3.58;100.00
20023;BME280;10172;42.054;24.546;2022-12-29T06:47:01;99293.81;;;4.20;100.00
20023;BME280;10172;42.054;24.546;2022-12-29T06:49:27;99285.00;;;3.15;100.00
20023;BME280;10172;42.054;24.546;2022-12-29T06:51:52;99232.56;;;2.68;100.00
20023;BME280;10172;42.054;24.546;2022-12-29T06:54:18;99300.59;;;2.83;100.00
20023;BME280;10172;42.054;24.546;2022-12-29T06:56:43;99287.75;;;3.09;100.00
20023;BME280;10172;42.054;24.546;2022-12-29T06:59:09;99318.25;;;3.54;100.00
20023;BME280;10172;42.054;24.546;2022-12-29T07:01:35;99309.47;;;3.55;100.00
20023;BME280;10172;42.054;24.546;2022-12-29T07:04:03;99315.56;;;3.93;100.00
20023;BME280;10172;42.054;24.546;2022-12-29T07:06:29;99302.09;;;3.34;100.00
20023;BME280;10172;42.054;24.546;2022-12-29T07:08:54;99265.13;;;2.61;100.00
20023;BME280;10172;42.054;24.546;2022-12-29T07:11:21;99307.91;;;3.10;100.00
20023;BME280;10172;42.054;24.546;2022-12-29T07:13:47;99298.78;;;4.32;100.00
20023;BME280;10172;42.054;24.546;2022-12-29T07:16:12;99242.13;;;3.84;100.00
20023;BME280;10172;42.054;24.546;2022-12-29T07:18:38;99294.22;;;4.05;100.00
20023;BME280;10172;42.054;24.546;2022-12-29T07:21:03;99297.91;;;3.98;100.00
20023;BME280;10172;42.054;24.546;2022-12-29T07:23:29;99272.56;;;4.89;100.00
20023;BME280;10172;42.054;24.546;2022-12-29T07:26:02;99297.25;;;4.87;100.00
20023;BME280;10172;42.054;24.546;2022-12-29T07:28:28;99252.25;;;4.31;100.00
20023;BME280;10172;42.054;24.546;2022-12-29T07:30:54;99299.78;;;4.59;100.00
20023;BME280;10172;42.054;24.546;2022-12-29T07:33:19;99262.53;;;5.00;100.00
20023;BME280;10172;42.054;24.546;2022-12-29T07:35:45;99285.31;;;5.87;100.00
20023;BME280;10172;42.054;24.546;2022-12-29T07:38:10;99275.75;;;6.34;100.00
20023;BME280;10172;42.054;24.546;2022-12-29T07:40:36;99249.97;;;6.41;100.00
20023;BME280;10172;42.054;24.546;2022-12-29T07:43:02;99293.53;;;6.79;100.00
20023;BME280;10172;42.054;24.546;2022-12-29T07:45:29;99313.34;;;6.18;100.00
20023;BME280;10172;42.054;24.546;2022-12-29T07:47:54;99293.78;;;6.23;100.00
20023;BME280;10172;42.054;24.546;2022-12-29T07:50:20;99292.50;;;6.59;100.00
20023;BME280;10172;42.054;24.546;2022-12-29T07:52:45;99286.09;;;6.65;100.00
20023;BME280;10172;42.054;24.546;2022-12-29T07:55:16;99305.72;;;7.06;100.00
20023;BME280;10172;42.054;24.546;2022-12-29T07:57:43;99300.78;;;7.20;100.00
20023;BME280;10172;42.054;24.546;2022-12-29T08:00:10;99291.78;;;7.47;100.00
20023;BME280;10172;42.054;24.546;2022-12-29T08:02:36;99300.59;;;7.91;100.00
20023;BME280;10172;42.054;24.546;2022-12-29T08:05:01;99296.63;;;7.81;100.00
20023;BME280;10172;42.054;24.546;2022-12-29T08:07:27;99306.00;;;8.10;100.00
20023;BME280;10172;42.054;24.546;2022-12-29T08:09:52;99299.59;;;7.94;100.00
20023;BME280;10172;42.054;24.546;2022-12-29T08:12:18;99286.53;;;8.11;100.00
20023;BME280;10172;42.054;24.546;2022-12-29T08:14:44;99298.09;;;8.30;100.00
20023;BME280;10172;42.054;24.546;2022-12-29T08:17:09;99291.53;;;8.38;100.00
20023;BME280;10172;42.054;24.546;2022-12-29T08:19:36;99298.56;;;8.80;100.00
20023;BME280;10172;42.054;24.546;2022-12-29T08:22:02;99286.56;;;8.71;100.00
20023;BME280;10172;42.054;24.546;2022-12-29T08:24:30;99299.34;;;9.21;100.00
20023;BME280;10172;42.054;24.546;2022-12-29T08:26:55;99276.81;;;9.29;100.00
20023;BME280;10172;42.054;24.546;2022-12-29T08:29:23;99290.22;;;6.97;100.00
20023;BME280;10172;42.054;24.546;2022-12-29T08:31:48;99268.44;;;8.20;100.00
20023;BME280;10172;42.054;24.546;2022-12-29T08:34:14;99290.53;;;8.41;100.00
20023;BME280;10172;42.054;24.546;2022-12-29T08:36:39;99213.78;;;8.18;100.00
20023;BME280;10172;42.054;24.546;2022-12-29T08:39:05;99236.81;;;8.95;100.00
20023;BME280;10172;42.054;24.546;2022-12-29T08:41:30;99270.13;;;9.39;100.00
20023;BME280;10172;42.054;24.546;2022-12-29T08:43:56;99214.94;;;9.46;100.00
20023;BME280;10172;42.054;24.546;2022-12-29T08:46:22;99287.94;;;10.09;97.91
20023;BME280;10172;42.054;24.546;2022-12-29T08:48:47;99292.28;;;9.93;98.24
20023;BME280;10172;42.054;24.546;2022-12-29T08:51:13;99274.50;;;9.59;100.00
20023;BME280;10172;42.054;24.546;2022-12-29T08:53:39;99207.06;;;9.61;98.23
20023;BME280;10172;42.054;24.546;2022-12-29T08:56:04;99218.75;;;10.10;96.77
20023;BME280;10172;42.054;24.546;2022-12-29T08:58:30;99269.44;;;10.59;95.50
20023;BME280;10172;42.054;24.546;2022-12-29T09:00:57;99225.19;;;10.24;94.85
20023;BME280;10172;42.054;24.546;2022-12-29T09:03:26;99264.91;;;10.44;94.86
20023;BME280;10172;42.054;24.546;2022-12-29T09:05:53;99264.06;;;10.43;94.73
20023;BME280;10172;42.054;24.546;2022-12-29T09:08:19;99261.69;;;10.54;95.27
20023;BME280;10172;42.054;24.546;2022-12-29T09:10:44;99195.38;;;10.17;95.70
20023;BME280;10172;42.054;24.546;2022-12-29T09:13:11;99226.47;;;9.98;97.62
20023;BME280;10172;42.054;24.546;2022-12-29T09:15:37;99249.19;;;10.56;95.47
20023;BME280;10172;42.054;24.546;2022-12-29T09:18:03;99197.28;;;10.32;94.74
20023;BME280;10172;42.054;24.546;2022-12-29T09:20:29;99176.09;;;10.46;94.98
20023;BME280;10172;42.054;24.546;2022-12-29T09:22:54;99219.84;;;10.73;95.20
20023;BME280;10172;42.054;24.546;2022-12-29T09:25:20;99210.53;;;10.82;94.31
20023;BME280;10172;42.054;24.546;2022-12-29T09:27:48;99200.75;;;10.50;93.98
20023;BME280;10172;42.054;24.546;2022-12-29T09:30:14;99206.69;;;10.03;95.82
20023;BME280;10172;42.054;24.546;2022-12-29T09:32:40;99212.19;;;10.35;95.32
20023;BME280;10172;42.054;24.546;2022-12-29T09:35:05;99177.41;;;10.55;95.65
20023;BME280;10172;42.054;24.546;2022-12-29T09:37:31;99206.16;;;10.48;94.28
20023;BME280;10172;42.054;24.546;2022-12-29T09:39:57;99207.69;;;10.69;94.35
20023;BME280;10172;42.054;24.546;2022-12-29T09:42:38;99218.72;;;10.95;94.54
20023;BME280;10172;42.054;24.546;2022-12-29T09:45:24;99217.66;;;11.30;91.90
20023;BME280;10172;42.054;24.546;2022-12-29T09:47:52;99210.97;;;11.06;92.04
20023;BME280;10172;42.054;24.546;2022-12-29T09:50:30;99200.31;;;10.90;92.98
20023;BME280;10172;42.054;24.546;2022-12-29T09:58:24;99201.19;;;10.91;94.21
20023;BME280;10172;42.054;24.546;2022-12-29T10:01:40;99190.84;;;10.36;95.99
20023;BME280;10172;42.054;24.546;2022-12-29T10:03:55;99156.47;;;11.13;94.60
20023;BME280;10172;42.054;24.546;2022-12-29T10:17:32;99165.28;;;11.76;91.18
20023;BME280;10172;42.054;24.546;2022-12-29T10:25:25;99163.84;;;11.23;93.79
20023;BME280;10172;42.054;24.546;2022-12-29T10:27:53;99152.78;;;11.76;91.22
20023;BME280;10172;42.054;24.546;2022-12-29T10:30:21;99083.16;;;11.37;91.04
20023;BME280;10172;42.054;24.546;2022-12-29T10:33:07;99152.31;;;11.23;91.77
20023;BME280;10172;42.054;24.546;2022-12-29T10:35:38;99156.88;;;11.36;93.80
20023;BME280;10172;42.054;24.546;2022-12-29T10:38:45;99154.09;;;11.69;90.95
20023;BME280;10172;42.054;24.546;2022-12-29T10:41:23;99146.72;;;11.43;92.00
20023;BME280;10172;42.054;24.546;2022-12-29T10:43:53;99140.41;;;11.30;92.30
20023;BME280;10172;42.054;24.546;2022-12-29T10:46:22;99147.09;;;11.82;91.00
20023;BME280;10172;42.054;24.546;2022-12-29T10:48:49;99050.81;;;11.43;89.72
20023;BME280;10172;42.054;24.546;2022-12-29T10:51:21;99093.56;;;11.26;91.52
20023;BME280;10172;42.054;24.546;2022-12-29T10:56:43;99132.69;;;10.94;93.39
20023;BME280;10172;42.054;24.546;2022-12-29T10:59:20;99094.19;;;11.00;93.62
20023;BME280;10172;42.054;24.546;2022-12-29T11:07:22;99115.19;;;11.65;92.74
20023;BME280;10172;42.054;24.546;2022-12-29T11:09:48;99071.63;;;11.36;91.10
20023;BME280;10172;42.054;24.546;2022-12-29T11:12:31;99129.53;;;11.33;92.00
20023;BME280;10172;42.054;24.546;2022-12-29T11:15:15;99076.81;;;11.24;92.51
20023;BME280;10172;42.054;24.546;2022-12-29T11:17:47;99119.13;;;11.44;92.20
20023;BME280;10172;42.054;24.546;2022-12-29T11:20:38;99118.56;;;10.76;94.45
20023;BME280;10172;42.054;24.546;2022-12-29T11:23:20;99117.03;;;10.24;97.23
20023;BME280;10172;42.054;24.546;2022-12-29T11:25:46;99108.94;;;9.58;100.00
20023;BME280;10172;42.054;24.546;2022-12-29T11:28:16;99056.84;;;9.03;100.00
20023;BME280;10172;42.054;24.546;2022-12-29T11:30:42;99109.97;;;10.71;100.00
20023;BME280;10172;42.054;24.546;2022-12-29T11:33:08;99081.41;;;11.36;97.15
20023;BME280;10172;42.054;24.546;2022-12-29T11:35:39;99100.25;;;11.92;93.23
20023;BME280;10172;42.054;24.546;2022-12-29T11:38:14;99099.38;;;11.78;92.45
20023;BME280;10172;42.054;24.546;2022-12-29T11:40:43;99102.31;;;11.73;92.50
20023;BME280;10172;42.054;24.546;2022-12-29T11:43:23;99084.44;;;11.60;92.46
20023;BME280;10172;42.054;24.546;2022-12-29T11:45:52;99083.28;;;11.50;92.62
20023;BME280;10172;42.054;24.546;2022-12-29T11:48:20;99074.75;;;11.59;92.10
20023;BME280;10172;42.054;24.546;2022-12-29T11:50:54;99102.31;;;12.17;90.33
20023;BME280;10172;42.054;24.546;2022-12-29T11:53:31;99082.13;;;11.69;92.04
20023;BME280;10172;42.054;24.546;2022-12-29T11:56:04;99085.69;;;11.54;91.83
20023;BME280;10172;42.054;24.546;2022-12-29T11:58:35;99077.28;;;11.46;92.59
20023;BME280;10172;42.054;24.546;2022-12-29T12:01:17;99077.28;;;11.46;92.30
20023;BME280;10172;42.054;24.546;2022-12-29T12:03:58;99063.28;;;11.43;93.46
20023;BME280;10172;42.054;24.546;2022-12-29T12:06:27;99064.28;;;11.85;91.66
20023;BME280;10172;42.054;24.546;2022-12-29T12:08:56;99062.34;;;11.87;90.41
20023;BME280;10172;42.054;24.546;2022-12-29T12:11:34;99064.16;;;11.73;92.25
20023;BME280;10172;42.054;24.546;2022-12-29T12:14:18;99056.28;;;11.99;90.65
20023;BME280;10172;42.054;24.546;2022-12-29T12:16:59;99044.66;;;12.00;91.17
20023;BME280;10172;42.054;24.546;2022-12-29T12:19:40;99055.34;;;12.15;90.51
20023;BME280;10172;42.054;24.546;2022-12-29T12:24:43;99036.63;;;11.43;94.50
20023;BME280;10172;42.054;24.546;2022-12-29T12:29:56;99006.94;;;12.07;89.32
20023;BME280;10172;42.054;24.546;2022-12-29T12:32:29;99033.81;;;12.04;90.78
20023;BME280;10172;42.054;24.546;2022-12-29T12:35:03;99054.16;;;12.61;89.21
20023;BME280;10172;42.054;24.546;2022-12-29T13:00:28;98996.41;;;12.87;86.75
20023;BME280;10172;42.054;24.546;2022-12-29T13:03:08;99028.91;;;13.47;83.99
20023;BME280;10172;42.054;24.546;2022-12-29T13:09:03;99051.59;;;13.54;84.43
20023;BME280;10172;42.054;24.546;2022-12-29T13:12:02;99046.91;;;13.70;84.03
20023;BME280;10172;42.054;24.546;2022-12-29T13:25:27;99033.00;;;12.99;86.67
20023;BME280;10172;42.054;24.546;2022-12-29T13:30:32;99007.34;;;12.96;86.06
20023;BME280;10172;42.054;24.546;2022-12-29T13:35:46;99049.28;;;13.08;85.83
20023;BME280;10172;42.054;24.546;2022-12-29T13:38:21;99006.31;;;12.58;86.79
20023;BME280;10172;42.054;24.546;2022-12-29T13:40:55;99045.53;;;12.84;87.08
20023;BME280;10172;42.054;24.546;2022-12-29T13:43:23;99043.78;;;12.56;88.18
20023;BME280;10172;42.054;24.546;2022-12-29T13:46:12;99052.72;;;12.70;87.33
20023;BME280;10172;42.054;24.546;2022-12-29T13:49:01;99054.84;;;12.65;88.22
20023;BME280;10172;42.054;24.546;2022-12-29T13:51:27;99039.03;;;12.33;88.90
20023;BME280;10172;42.054;24.546;2022-12-29T14:04:14;99039.38;;;11.11;94.90
20023;BME280;10172;42.054;24.546;2022-12-29T14:06:56;99015.88;;;10.26;100.00
20023;BME280;10172;42.054;24.546;2022-12-29T14:09:40;99057.72;;;10.22;100.00
20023;BME280;10172;42.054;24.546;2022-12-29T14:12:39;99052.97;;;10.44;99.75
20023;BME280;10172;42.054;24.546;2022-12-29T14:17:34;99055.50;;;9.47;100.00
20023;BME280;10172;42.054;24.546;2022-12-29T14:20:01;99044.72;;;9.50;100.00
20023;BME280;10172;42.054;24.546;2022-12-29T14:22:28;99050.72;;;10.04;100.00
20023;BME280;10172;42.054;24.546;2022-12-29T14:24:54;99053.59;;;9.67;100.00
20023;BME280;10172;42.054;24.546;2022-12-29T14:29:47;99050.84;;;8.06;100.00
20023;BME280;10172;42.054;24.546;2022-12-29T14:35:01;99051.91;;;8.60;100.00
20023;BME280;10172;42.054;24.546;2022-12-29T14:37:45;99015.19;;;7.36;100.00
20023;BME280;10172;42.054;24.546;2022-12-29T14:40:18;99051.84;;;7.24;100.00
20023;BME280;10172;42.054;24.546;2022-12-29T14:42:45;99015.47;;;7.30;100.00
20023;BME280;10172;42.054;24.546;2022-12-29T14:47:42;99058.88;;;7.46;100.00
20023;BME280;10172;42.054;24.546;2022-12-29T14:50:38;99062.63;;;6.78;100.00
20023;BME280;10172;42.054;24.546;2022-12-29T14:53:04;99072.13;;;6.82;100.00
20023;BME280;10172;42.054;24.546;2022-12-29T14:55:57;99073.16;;;7.21;100.00
20023;BME280;10172;42.054;24.546;2022-12-29T14:58:29;99068.41;;;7.30;100.00
20023;BME280;10172;42.054;24.546;2022-12-29T15:00:55;99029.94;;;6.57;100.00
20023;BME280;10172;42.054;24.546;2022-12-29T15:03:38;99011.94;;;6.00;100.00
20023;BME280;10172;42.054;24.546;2022-12-29T15:06:11;99062.06;;;6.70;100.00
20023;BME280;10172;42.054;24.546;2022-12-29T15:08:52;99070.91;;;6.69;100.00
20023;BME280;10172;42.054;24.546;2022-12-29T15:11:23;99033.50;;;6.12;100.00
20023;BME280;10172;42.054;24.546;2022-12-29T15:13:49;99044.91;;;6.35;100.00
20023;BME280;10172;42.054;24.546;2022-12-29T15:16:32;99060.97;;;6.76;100.00
20023;BME280;10172;42.054;24.546;2022-12-29T15:21:29;99070.44;;;6.36;100.00
20023;BME280;10172;42.054;24.546;2022-12-29T15:23:56;99055.69;;;6.08;100.00
20023;BME280;10172;42.054;24.546;2022-12-29T15:26:22;99067.34;;;6.02;100.00
20023;BME280;10172;42.054;24.546;2022-12-29T15:28:52;99063.53;;;6.09;100.00
20023;BME280;10172;42.054;24.546;2022-12-29T15:31:25;99070.56;;;6.10;100.00